createdAt,value
2018-11-06T00:00:26.527Z,28.6
2018-11-06T00:01:28.959Z,28.6
2018-11-06T00:02:31.094Z,28.4
2018-11-06T00:03:32.992Z,28.4
2018-11-06T00:04:35.167Z,28.6
2018-11-06T00:05:37.339Z,28.6
2018-11-06T00:06:39.778Z,28.5
2018-11-06T00:07:41.949Z,28.6
2018-11-06T00:08:44.097Z,28.6
2018-11-06T00:09:45.986Z,28.6
2018-11-06T00:10:48.419Z,28.6
2018-11-06T00:11:50.307Z,28.7
2018-11-06T00:12:52.745Z,28.7
2018-11-06T00:13:54.901Z,28.8
2018-11-06T00:14:57.053Z,28.8
2018-11-06T00:15:59.479Z,28.7
2018-11-06T00:17:01.345Z,28.8
2018-11-06T00:18:03.519Z,28.9
2018-11-06T00:19:05.374Z,28.9
2018-11-06T00:20:07.528Z,28.9
2018-11-06T00:21:09.399Z,28.9
2018-11-06T00:22:11.547Z,28.9
2018-11-06T00:23:13.983Z,28.7
2018-11-06T00:24:16.410Z,28.9
2018-11-06T00:25:18.571Z,28.9
2018-11-06T00:26:20.714Z,29
2018-11-06T00:27:22.880Z,28.9
2018-11-06T00:28:25.311Z,28.9
2018-11-06T00:29:27.745Z,29
2018-11-06T00:30:29.909Z,28.9
2018-11-06T00:31:32.074Z,29
2018-11-06T00:32:34.235Z,29
2018-11-06T00:33:36.117Z,29.1
2018-11-06T00:34:37.970Z,29
2018-11-06T00:35:40.394Z,29.1
2018-11-06T00:36:42.835Z,29.1
2018-11-06T00:37:44.995Z,29
2018-11-06T00:38:46.876Z,29
2018-11-06T00:39:48.780Z,29.2
2018-11-06T00:40:50.907Z,29
2018-11-06T00:41:53.066Z,29.1
2018-11-06T00:42:54.956Z,29.1
2018-11-06T00:43:57.111Z,29.1
2018-11-06T00:44:59.273Z,29.2
2018-11-06T00:46:01.143Z,29.1
2018-11-06T00:47:03.580Z,29.2
2018-11-06T00:48:05.735Z,29.3
2018-11-06T00:49:07.899Z,29.2
2018-11-06T00:50:10.323Z,29.3
2018-11-06T00:51:26.841Z,29.1
2018-11-06T00:52:28.994Z,29.2
2018-11-06T00:53:30.899Z,29.2
2018-11-06T00:54:33.350Z,29.1
2018-11-06T00:55:35.206Z,29.2
2018-11-06T00:56:37.375Z,29.1
2018-11-06T00:57:39.248Z,29.1
2018-11-06T00:58:41.514Z,29.2
2018-11-06T00:59:43.928Z,29.2
2018-11-06T01:00:46.073Z,29.2
2018-11-06T01:01:48.226Z,29.2
2018-11-06T01:02:50.120Z,29.1
2018-11-06T01:03:52.550Z,29.2
2018-11-06T01:04:54.172Z,29.2
2018-11-06T01:05:56.610Z,29.2
2018-11-06T01:06:58.782Z,29.2
2018-11-06T01:08:00.657Z,29.4
2018-11-06T01:09:02.809Z,29.2
2018-11-06T01:10:04.694Z,29.3
2018-11-06T01:11:06.849Z,29.2
2018-11-06T01:12:09.018Z,29.2
2018-11-06T01:13:11.178Z,29.3
2018-11-06T01:14:13.063Z,29.2
2018-11-06T01:15:14.978Z,29.3
2018-11-06T01:16:16.869Z,29.2
2018-11-06T01:17:18.475Z,29.2
2018-11-06T01:18:20.637Z,29.4
2018-11-06T01:19:23.060Z,29.3
2018-11-06T01:20:25.483Z,29.3
2018-11-06T01:21:27.346Z,29.4
2018-11-06T01:22:29.784Z,29.2
2018-11-06T01:23:32.225Z,29.3
2018-11-06T01:24:34.649Z,29.4
2018-11-06T01:25:37.079Z,29.3
2018-11-06T01:26:38.680Z,29.4
2018-11-06T01:27:41.119Z,29.2
2018-11-06T01:28:43.006Z,29.3
2018-11-06T01:29:45.157Z,29.3
2018-11-06T01:30:47.047Z,29.3
2018-11-06T01:31:48.652Z,29.3
2018-11-06T01:32:50.820Z,29.4
2018-11-06T01:33:52.970Z,29.3
2018-11-06T01:34:54.580Z,29.3
2018-11-06T01:35:56.744Z,29.4
2018-11-06T01:36:59.169Z,29.4
2018-11-06T01:38:01.602Z,29.3
2018-11-06T01:39:04.037Z,29.3
2018-11-06T01:40:05.912Z,29.4
2018-11-06T01:41:07.792Z,29.3
2018-11-06T01:42:09.688Z,29.3
2018-11-06T01:43:12.120Z,29.3
2018-11-06T01:44:14.276Z,29.4
2018-11-06T01:45:16.157Z,29.4
2018-11-06T01:46:18.338Z,29.2
2018-11-06T01:47:20.770Z,29.5
2018-11-06T01:48:23.197Z,29.4
2018-11-06T01:49:25.345Z,29.5
2018-11-06T01:50:27.785Z,29.5
2018-11-06T01:51:30.207Z,29.4
2018-11-06T01:52:32.641Z,29.4
2018-11-06T01:53:34.796Z,29.4
2018-11-06T01:54:36.938Z,29.3
2018-11-06T01:55:39.084Z,29.4
2018-11-06T01:56:40.964Z,29.4
2018-11-06T01:57:43.425Z,29.4
2018-11-06T01:58:45.319Z,29.4
2018-11-06T01:59:47.182Z,29.3
2018-11-06T02:00:49.150Z,29.3
2018-11-06T02:01:51.581Z,29.4
2018-11-06T02:02:53.760Z,29.4
2018-11-06T02:03:56.176Z,29.3
2018-11-06T02:05:12.728Z,29.3
2018-11-06T02:06:14.895Z,29.3
2018-11-06T02:07:17.057Z,29.3
2018-11-06T02:08:18.916Z,29.5
2018-11-06T02:09:21.058Z,29.2
2018-11-06T02:10:23.488Z,29.4
2018-11-06T02:11:25.361Z,29.5
2018-11-06T02:12:27.240Z,29.3
2018-11-06T02:13:29.410Z,29.4
2018-11-06T02:14:31.839Z,29.4
2018-11-06T02:15:33.699Z,29.4
2018-11-06T02:16:35.598Z,29.5
2018-11-06T02:17:36.929Z,29.5
2018-11-06T02:18:39.087Z,29.5
2018-11-06T02:19:41.286Z,29.3
2018-11-06T02:20:43.199Z,29.6
2018-11-06T02:21:45.051Z,29.5
2018-11-06T02:22:46.923Z,29.4
2018-11-06T02:23:49.080Z,29.4
2018-11-06T02:24:51.232Z,29.5
2018-11-06T02:25:53.660Z,29.5
2018-11-06T02:26:56.102Z,29.5
2018-11-06T02:27:57.993Z,29.3
2018-11-06T02:29:00.126Z,29.6
2018-11-06T02:30:02.031Z,29.3
2018-11-06T02:31:04.464Z,29.5
2018-11-06T02:32:06.938Z,29.4
2018-11-06T02:33:08.272Z,29.5
2018-11-06T02:34:10.701Z,29.5
2018-11-06T02:35:12.849Z,29.5
2018-11-06T02:36:15.017Z,29.5
2018-11-06T02:37:16.894Z,29.4
2018-11-06T02:38:19.045Z,29.6
2018-11-06T02:39:21.473Z,29.5
2018-11-06T02:40:23.909Z,29.5
2018-11-06T02:41:26.338Z,29.5
2018-11-06T02:42:28.780Z,29.5
2018-11-06T02:43:30.913Z,29.4
2018-11-06T02:44:33.060Z,29.5
2018-11-06T02:45:35.217Z,29.5
2018-11-06T02:46:37.373Z,29.5
2018-11-06T02:47:39.526Z,29.5
2018-11-06T02:48:41.680Z,29.5
2018-11-06T02:49:43.842Z,29.5
2018-11-06T02:50:45.996Z,29.6
2018-11-06T02:51:48.141Z,29.3
2018-11-06T02:52:50.022Z,29.5
2018-11-06T02:53:52.455Z,29.4
2018-11-06T02:54:54.043Z,29.3
2018-11-06T02:55:56.459Z,29.4
2018-11-06T02:56:58.849Z,29.4
2018-11-06T02:58:01.274Z,29.6
2018-11-06T02:59:03.696Z,29.5
2018-11-06T03:00:05.597Z,29.7
2018-11-06T03:01:07.754Z,29.3
2018-11-06T03:02:10.187Z,29.3
2018-11-06T03:03:12.062Z,29.4
2018-11-06T03:04:14.209Z,29.5
2018-11-06T03:05:16.072Z,29.4
2018-11-06T03:06:18.515Z,29.4
2018-11-06T03:07:20.948Z,29.3
2018-11-06T03:08:23.378Z,29.5
2018-11-06T03:09:25.806Z,29.4
2018-11-06T03:10:28.442Z,29.4
2018-11-06T03:11:30.626Z,29.5
2018-11-06T03:12:32.485Z,29.6
2018-11-06T03:13:34.646Z,29.3
2018-11-06T03:14:36.527Z,29.5
2018-11-06T03:15:38.695Z,29.4
2018-11-06T03:16:40.659Z,29.4
2018-11-06T03:17:43.183Z,29.4
2018-11-06T03:18:45.617Z,29.5
2018-11-06T03:19:47.769Z,29.3
2018-11-06T03:20:49.939Z,29.5
2018-11-06T03:21:52.089Z,29.5
2018-11-06T03:22:53.965Z,29.6
2018-11-06T03:23:56.115Z,29.5
2018-11-06T03:24:57.720Z,29.5
2018-11-06T03:25:59.859Z,29.4
2018-11-06T03:27:01.966Z,29.5
2018-11-06T03:28:04.328Z,29.3
2018-11-06T03:29:06.512Z,29.5
2018-11-06T03:30:08.390Z,29.6
2018-11-06T03:31:10.556Z,29.5
2018-11-06T03:32:12.421Z,29.6
2018-11-06T03:33:14.847Z,29.3
2018-11-06T03:34:17.309Z,29.5
2018-11-06T03:35:19.155Z,29.4
2018-11-06T03:36:21.323Z,29.4
2018-11-06T03:37:23.759Z,29.5
2018-11-06T03:38:26.189Z,29.4
2018-11-06T03:39:28.350Z,29.5
2018-11-06T03:40:30.777Z,29.3
2018-11-06T03:41:32.669Z,29.5
2018-11-06T03:42:35.099Z,29.5
2018-11-06T03:43:36.963Z,29.5
2018-11-06T03:44:39.407Z,29.4
2018-11-06T03:45:41.559Z,29.4
2018-11-06T03:46:43.158Z,29.4
2018-11-06T03:47:45.294Z,29.5
2018-11-06T03:48:46.873Z,29.6
2018-11-06T03:49:48.451Z,29.5
2018-11-06T03:50:50.593Z,29.6
2018-11-06T03:51:53.027Z,29.5
2018-11-06T03:52:54.898Z,29.5
2018-11-06T03:53:57.931Z,29.3
2018-11-06T03:55:00.399Z,29.4
2018-11-06T03:56:02.557Z,29.6
2018-11-06T03:57:04.995Z,29.5
2018-11-06T03:58:06.028Z,29.3
2018-11-06T03:59:08.204Z,29.5
2018-11-06T04:00:10.334Z,29.4
2018-11-06T04:01:12.205Z,29.4
2018-11-06T04:02:14.363Z,29.5
2018-11-06T04:03:16.237Z,29.3
2018-11-06T04:04:18.388Z,29.6
2018-11-06T04:05:20.276Z,29.3
2018-11-06T04:06:22.423Z,29.4
2018-11-06T04:07:24.846Z,29.2
2018-11-06T04:08:26.723Z,29.4
2018-11-06T04:09:29.148Z,29.4
2018-11-06T04:10:31.313Z,29.2
2018-11-06T04:11:33.736Z,29.3
2018-11-06T04:12:35.892Z,29.2
2018-11-06T04:13:38.317Z,29.3
2018-11-06T04:14:40.456Z,29.2
2018-11-06T04:15:42.639Z,29.2
2018-11-06T04:16:44.788Z,29.2
2018-11-06T04:17:47.218Z,29.2
2018-11-06T04:18:49.378Z,29.2
2018-11-06T04:19:51.538Z,29.3
2018-11-06T04:20:53.947Z,29.1
2018-11-06T04:21:56.389Z,29
2018-11-06T04:22:58.539Z,29.1
2018-11-06T04:24:00.981Z,29.1
2018-11-06T04:25:03.136Z,29.2
2018-11-06T04:26:05.306Z,29.2
2018-11-06T04:27:07.733Z,29.1
2018-11-06T04:28:09.632Z,29.1
2018-11-06T04:29:11.518Z,29
2018-11-06T04:30:13.960Z,29.1
2018-11-06T04:31:16.375Z,28.9
2018-11-06T04:32:18.544Z,29
2018-11-06T04:33:20.700Z,29.2
2018-11-06T04:34:23.128Z,28.9
2018-11-06T04:35:25.269Z,29
2018-11-06T04:36:27.427Z,29
2018-11-06T04:37:29.884Z,29.1
2018-11-06T04:38:32.355Z,29
2018-11-06T04:39:34.244Z,28.8
2018-11-06T04:40:36.121Z,29.1
2018-11-06T04:41:38.001Z,29.1
2018-11-06T04:42:40.437Z,29
2018-11-06T04:43:42.331Z,29.1
2018-11-06T04:44:44.508Z,29.1
2018-11-06T04:45:46.925Z,29.1
2018-11-06T04:46:49.369Z,29.1
2018-11-06T04:47:51.814Z,28.9
2018-11-06T04:48:54.245Z,29
2018-11-06T04:49:56.740Z,29
2018-11-06T04:50:59.320Z,29.1
2018-11-06T04:52:01.762Z,29
2018-11-06T04:53:03.921Z,29.1
2018-11-06T04:54:05.826Z,29.1
2018-11-06T04:55:08.253Z,29
2018-11-06T04:56:10.432Z,28.9
2018-11-06T04:57:12.334Z,28.9
2018-11-06T04:58:14.771Z,28.8
2018-11-06T04:59:17.209Z,29.1
2018-11-06T05:00:19.353Z,28.9
2018-11-06T05:01:21.532Z,28.8
2018-11-06T05:02:23.981Z,29.1
2018-11-06T05:03:25.873Z,28.9
2018-11-06T05:04:28.098Z,29.1
2018-11-06T05:05:29.997Z,28.9
2018-11-06T05:06:31.886Z,28.9
2018-11-06T05:07:34.317Z,29
2018-11-06T05:08:36.469Z,28.9
2018-11-06T05:09:38.345Z,28.9
2018-11-06T05:10:40.787Z,28.9
2018-11-06T05:11:43.216Z,28.9
2018-11-06T05:12:45.358Z,28.8
2018-11-06T05:13:47.544Z,28.8
2018-11-06T05:14:50.181Z,29
2018-11-06T05:15:52.599Z,28.9
2018-11-06T05:16:55.030Z,28.8
2018-11-06T05:17:57.455Z,28.9
2018-11-06T05:18:59.616Z,28.8
2018-11-06T05:20:02.039Z,28.9
2018-11-06T05:21:04.491Z,29
2018-11-06T05:22:06.652Z,28.8
2018-11-06T05:23:08.247Z,28.8
2018-11-06T05:24:10.400Z,28.7
2018-11-06T05:25:12.664Z,28.8
2018-11-06T05:26:14.570Z,28.8
2018-11-06T05:27:16.735Z,28.9
2018-11-06T05:28:19.258Z,28.9
2018-11-06T05:29:21.681Z,28.9
2018-11-06T05:30:23.832Z,28.7
2018-11-06T05:31:25.710Z,28.8
2018-11-06T05:32:27.871Z,28.8
2018-11-06T05:33:30.296Z,28.9
2018-11-06T05:34:32.471Z,28.8
2018-11-06T05:35:34.774Z,28.8
2018-11-06T05:36:36.691Z,28.7
2018-11-06T05:37:38.583Z,28.9
2018-11-06T05:38:40.740Z,28.8
2018-11-06T05:39:43.388Z,28.9
2018-11-06T05:40:45.886Z,28.9
2018-11-06T05:41:48.313Z,29
2018-11-06T05:42:50.739Z,28.7
2018-11-06T05:43:53.036Z,28.8
2018-11-06T05:44:55.283Z,28.8
2018-11-06T05:45:57.427Z,28.8
2018-11-06T05:46:59.852Z,28.7
2018-11-06T05:48:02.308Z,28.8
2018-11-06T05:49:04.190Z,28.7
2018-11-06T05:50:06.344Z,28.8
2018-11-06T05:51:08.512Z,28.8
2018-11-06T05:52:10.943Z,28.8
2018-11-06T05:53:13.579Z,28.8
2018-11-06T05:54:15.789Z,28.7
2018-11-06T05:55:17.650Z,28.7
2018-11-06T05:56:19.790Z,28.8
2018-11-06T05:57:21.947Z,28.7
2018-11-06T05:58:24.210Z,28.6
2018-11-06T05:59:26.649Z,28.9
2018-11-06T06:00:29.206Z,28.8
2018-11-06T06:01:31.774Z,28.8
2018-11-06T06:02:33.918Z,28.7
2018-11-06T06:03:35.800Z,28.8
2018-11-06T06:04:37.950Z,28.8
2018-11-06T06:05:40.384Z,28.7
2018-11-06T06:06:42.014Z,28.6
2018-11-06T06:07:44.180Z,28.7
2018-11-06T06:08:46.619Z,28.7
2018-11-06T06:09:48.776Z,28.8
2018-11-06T06:10:50.975Z,28.7
2018-11-06T06:11:52.936Z,28.8
2018-11-06T06:12:55.069Z,28.7
2018-11-06T06:13:57.239Z,28.7
2018-11-06T06:14:59.692Z,28.7
2018-11-06T06:16:01.868Z,28.7
2018-11-06T06:17:03.754Z,28.8
2018-11-06T06:18:05.362Z,28.7
2018-11-06T06:19:07.521Z,28.7
2018-11-06T06:20:09.391Z,28.7
2018-11-06T06:21:11.831Z,28.8
2018-11-06T06:22:13.995Z,28.7
2018-11-06T06:23:16.160Z,28.7
2018-11-06T06:24:17.767Z,28.6
2018-11-06T06:25:19.920Z,28.8
2018-11-06T06:26:21.821Z,28.7
2018-11-06T06:27:23.970Z,28.6
2018-11-06T06:28:26.326Z,28.7
2018-11-06T06:29:28.258Z,28.7
2018-11-06T06:30:30.413Z,28.7
2018-11-06T06:31:32.841Z,28.7
2018-11-06T06:32:34.992Z,28.7
2018-11-06T06:33:37.164Z,28.7
2018-11-06T06:34:39.578Z,28.7
2018-11-06T06:35:42.664Z,28.7
2018-11-06T06:36:44.602Z,28.7
2018-11-06T06:37:46.467Z,28.7
2018-11-06T06:38:48.875Z,28.7
2018-11-06T06:39:51.655Z,28.6
2018-11-06T06:40:54.230Z,28.6
2018-11-06T06:41:56.692Z,28.7
2018-11-06T06:42:58.547Z,28.7
2018-11-06T06:44:00.978Z,28.7
2018-11-06T06:45:03.110Z,28.6
2018-11-06T06:46:05.040Z,28.8
2018-11-06T06:47:07.577Z,28.6
2018-11-06T06:48:09.735Z,28.7
2018-11-06T06:49:12.168Z,28.6
2018-11-06T06:50:14.597Z,28.6
2018-11-06T06:51:16.479Z,28.6
2018-11-06T06:52:18.920Z,28.7
2018-11-06T06:53:21.066Z,28.6
2018-11-06T06:54:23.358Z,28.6
2018-11-06T06:55:26.828Z,28.6
2018-11-06T06:56:29.264Z,28.5
2018-11-06T06:57:31.168Z,28.7
2018-11-06T06:58:33.322Z,28.6
2018-11-06T06:59:35.757Z,28.6
2018-11-06T07:00:38.187Z,28.6
2018-11-06T07:01:40.340Z,28.6
2018-11-06T07:02:43.054Z,28.7
2018-11-06T07:03:45.256Z,28.6
2018-11-06T07:04:47.682Z,28.6
2018-11-06T07:05:50.110Z,28.4
2018-11-06T07:06:52.529Z,28.5
2018-11-06T07:07:54.682Z,28.6
2018-11-06T07:08:57.100Z,28.7
2018-11-06T07:09:59.257Z,28.6
2018-11-06T07:11:01.139Z,28.7
2018-11-06T07:12:03.031Z,28.6
2018-11-06T07:13:05.432Z,28.6
2018-11-06T07:14:07.760Z,28.6
2018-11-06T07:15:09.908Z,28.6
2018-11-06T07:16:12.338Z,28.6
2018-11-06T07:17:14.485Z,28.5
2018-11-06T07:18:16.637Z,28.7
2018-11-06T07:19:19.142Z,28.6
2018-11-06T07:20:21.570Z,28.6
2018-11-06T07:21:23.719Z,28.6
2018-11-06T07:22:26.153Z,28.6
2018-11-06T07:23:28.288Z,28.6
2018-11-06T07:24:30.168Z,28.6
2018-11-06T07:25:32.310Z,28.6
2018-11-06T07:26:34.189Z,28.6
2018-11-06T07:27:36.615Z,28.6
2018-11-06T07:28:38.839Z,28.7
2018-11-06T07:29:41.464Z,28.8
2018-11-06T07:30:43.351Z,28.6
2018-11-06T07:31:45.778Z,28.7
2018-11-06T07:32:47.950Z,28.7
2018-11-06T07:33:50.370Z,28.6
2018-11-06T07:34:53.020Z,28.7
2018-11-06T07:35:56.537Z,28.6
2018-11-06T07:36:59.047Z,28.7
2018-11-06T07:38:00.900Z,28.7
2018-11-06T07:39:02.786Z,28.6
2018-11-06T07:40:04.921Z,28.7
2018-11-06T07:41:07.602Z,28.7
2018-11-06T07:42:10.501Z,28.5
2018-11-06T07:43:12.663Z,28.7
2018-11-06T07:44:15.102Z,28.6
2018-11-06T07:45:17.530Z,28.7
2018-11-06T07:46:19.678Z,28.7
2018-11-06T07:47:21.264Z,28.7
2018-11-06T07:48:23.406Z,28.7
2018-11-06T07:49:25.837Z,28.7
2018-11-06T07:50:27.995Z,28.5
2018-11-06T07:51:30.824Z,28.7
2018-11-06T07:52:32.699Z,28.6
2018-11-06T07:53:35.233Z,28.5
2018-11-06T07:54:37.414Z,28.7
2018-11-06T07:55:39.523Z,28.7
2018-11-06T07:56:41.966Z,28.7
2018-11-06T07:57:43.551Z,28.7
2018-11-06T07:58:45.695Z,28.7
2018-11-06T07:59:47.835Z,28.5
2018-11-06T08:00:50.290Z,28.7
2018-11-06T08:01:52.450Z,28.6
2018-11-06T08:02:54.332Z,28.6
2018-11-06T08:03:56.474Z,28.6
2018-11-06T08:04:58.705Z,28.6
2018-11-06T08:06:00.078Z,28.6
2018-11-06T08:07:02.232Z,28.6
2018-11-06T08:08:04.660Z,28.6
2018-11-06T08:09:06.818Z,28.7
2018-11-06T08:10:08.703Z,28.5
2018-11-06T08:11:11.136Z,28.7
2018-11-06T08:12:13.566Z,28.7
2018-11-06T08:13:15.711Z,28.5
2018-11-06T08:14:17.640Z,28.6
2018-11-06T08:15:19.241Z,28.7
2018-11-06T08:16:21.672Z,28.5
2018-11-06T08:17:23.810Z,28.6
2018-11-06T08:18:26.240Z,28.5
2018-11-06T08:19:28.401Z,28.5
2018-11-06T08:20:30.945Z,28.6
2018-11-06T08:21:33.739Z,28.5
2018-11-06T08:22:36.178Z,28.5
2018-11-06T08:23:37.860Z,28.6
2018-11-06T08:24:39.801Z,28.6
2018-11-06T08:25:41.970Z,28.6
2018-11-06T08:26:44.118Z,28.7
2018-11-06T08:27:46.551Z,28.6
2018-11-06T08:28:48.842Z,28.6
2018-11-06T08:29:50.988Z,28.7
2018-11-06T08:30:53.785Z,28.6
2018-11-06T08:31:58.259Z,28.8
2018-11-06T08:33:01.957Z,28.8
2018-11-06T08:34:04.294Z,28.5
2018-11-06T08:35:06.185Z,28.6
2018-11-06T08:36:08.328Z,28.4
2018-11-06T08:37:10.479Z,28.7
2018-11-06T08:38:13.158Z,28.6
2018-11-06T08:39:15.588Z,28.6
2018-11-06T08:40:17.761Z,28.7
2018-11-06T08:41:20.192Z,28.5
2018-11-06T08:42:22.706Z,28.6
2018-11-06T08:43:25.008Z,28.5
2018-11-06T08:44:27.471Z,28.6
2018-11-06T08:45:29.625Z,28.5
2018-11-06T08:46:31.780Z,28.5
2018-11-06T08:47:34.210Z,28.6
2018-11-06T08:48:36.371Z,28.6
2018-11-06T08:49:38.240Z,28.6
2018-11-06T08:50:40.681Z,28.5
2018-11-06T08:51:43.111Z,28.6
2018-11-06T08:52:45.539Z,28.6
2018-11-06T08:53:47.966Z,28.6
2018-11-06T08:54:50.134Z,28.6
2018-11-06T08:55:52.004Z,28.5
2018-11-06T08:56:54.165Z,28.5
2018-11-06T08:57:56.624Z,28.7
2018-11-06T08:58:59.044Z,28.6
2018-11-06T09:00:01.207Z,28.6
2018-11-06T09:01:03.098Z,28.6
2018-11-06T09:02:04.719Z,28.5
2018-11-06T09:03:07.154Z,28.6
2018-11-06T09:04:09.323Z,28.6
2018-11-06T09:05:11.749Z,28.6
2018-11-06T09:06:13.906Z,28.7
2018-11-06T09:07:16.064Z,28.6
2018-11-06T09:08:17.950Z,28.6
2018-11-06T09:09:20.113Z,28.4
2018-11-06T09:10:22.538Z,28.6
2018-11-06T09:11:24.700Z,28.5
2018-11-06T09:12:26.572Z,28.6
2018-11-06T09:13:28.724Z,28.6
2018-11-06T09:14:30.868Z,28.4
2018-11-06T09:15:32.746Z,28.7
2018-11-06T09:16:34.620Z,28.6
2018-11-06T09:17:36.779Z,28.5
2018-11-06T09:18:39.209Z,28.6
2018-11-06T09:19:41.109Z,28.6
2018-11-06T09:20:42.428Z,28.7
2018-11-06T09:21:44.867Z,28.6
2018-11-06T09:22:47.302Z,28.4
2018-11-06T09:23:49.436Z,28.5
2018-11-06T09:24:51.601Z,28.6
2018-11-06T09:25:53.198Z,28.6
2018-11-06T09:26:55.633Z,28.6
2018-11-06T09:27:57.786Z,28.5
2018-11-06T09:28:59.702Z,28.5
2018-11-06T09:30:01.548Z,28.6
2018-11-06T09:31:03.596Z,28.5
2018-11-06T09:32:06.441Z,28.5
2018-11-06T09:33:08.621Z,28.4
2018-11-06T09:34:11.065Z,28.6
2018-11-06T09:35:13.664Z,28.7
2018-11-06T09:36:16.040Z,28.5
2018-11-06T09:37:18.180Z,28.5
2018-11-06T09:38:20.704Z,28.6
2018-11-06T09:39:23.146Z,28.6
2018-11-06T09:40:25.020Z,28.4
2018-11-06T09:41:27.410Z,28.5
2018-11-06T09:42:30.131Z,28.6
2018-11-06T09:43:32.290Z,28.7
2018-11-06T09:44:34.729Z,28.4
2018-11-06T09:45:37.161Z,28.5
2018-11-06T09:46:39.382Z,28.5
2018-11-06T09:47:41.545Z,28.4
2018-11-06T09:48:43.584Z,28.6
2018-11-06T09:49:45.190Z,28.6
2018-11-06T09:50:47.350Z,28.6
2018-11-06T09:51:49.543Z,28.7
2018-11-06T09:52:51.872Z,28.5
2018-11-06T09:53:54.035Z,28.4
2018-11-06T09:54:56.468Z,28.5
2018-11-06T09:55:58.945Z,28.6
2018-11-06T09:57:00.819Z,28.6
2018-11-06T09:58:02.976Z,28.6
2018-11-06T09:59:05.431Z,28.5
2018-11-06T10:00:07.463Z,28.5
2018-11-06T10:01:10.087Z,28.5
2018-11-06T10:02:12.534Z,28.5
2018-11-06T10:03:14.959Z,28.5
2018-11-06T10:04:17.108Z,28.7
2018-11-06T10:05:19.275Z,28.5
2018-11-06T10:06:21.817Z,28.6
2018-11-06T10:07:25.452Z,28.6
2018-11-06T10:08:28.251Z,28.5
2018-11-06T10:09:30.689Z,28.6
2018-11-06T10:10:32.568Z,28.6
2018-11-06T10:11:35.005Z,28.5
2018-11-06T10:12:36.893Z,28.5
2018-11-06T10:13:39.325Z,28.5
2018-11-06T10:14:41.751Z,28.6
2018-11-06T10:15:44.368Z,28.6
2018-11-06T10:16:46.819Z,28.5
2018-11-06T10:17:48.971Z,28.4
2018-11-06T10:18:51.181Z,28.7
2018-11-06T10:19:53.349Z,28.5
2018-11-06T10:20:55.253Z,28.6
2018-11-06T10:21:57.136Z,28.7
2018-11-06T10:22:59.011Z,28.5
2018-11-06T10:24:01.455Z,28.6
2018-11-06T10:25:03.624Z,28.6
2018-11-06T10:26:05.493Z,28.6
2018-11-06T10:27:07.633Z,28.6
2018-11-06T10:28:09.536Z,28.6
2018-11-06T10:29:11.399Z,28.6
2018-11-06T10:30:13.578Z,28.6
2018-11-06T10:31:15.723Z,28.4
2018-11-06T10:32:17.588Z,28.5
2018-11-06T10:33:19.749Z,28.5
2018-11-06T10:34:22.195Z,28.5
2018-11-06T10:35:23.778Z,28.5
2018-11-06T10:36:25.690Z,28.5
2018-11-06T10:37:27.851Z,28.5
2018-11-06T10:38:29.740Z,28.5
2018-11-06T10:39:31.893Z,28.7
2018-11-06T10:40:33.775Z,28.6
2018-11-06T10:41:35.938Z,28.4
2018-11-06T10:42:38.098Z,28.6
2018-11-06T10:43:40.616Z,28.4
2018-11-06T10:44:43.169Z,28.6
2018-11-06T10:45:45.327Z,28.6
2018-11-06T10:46:47.487Z,28.4
2018-11-06T10:47:49.377Z,28.5
2018-11-06T10:48:51.548Z,28.6
2018-11-06T10:49:53.706Z,28.5
2018-11-06T10:50:55.590Z,28.6
2018-11-06T10:51:58.274Z,28.6
2018-11-06T10:53:00.487Z,28.5
2018-11-06T10:54:02.372Z,28.5
2018-11-06T10:55:04.266Z,28.5
2018-11-06T10:56:06.409Z,28.5
2018-11-06T10:57:08.549Z,28.6
2018-11-06T10:58:10.554Z,28.4
2018-11-06T10:59:12.720Z,28.4
2018-11-06T11:00:14.325Z,28.5
2018-11-06T11:01:16.767Z,28.6
2018-11-06T11:02:18.941Z,28.5
2018-11-06T11:03:20.841Z,28.5
2018-11-06T11:04:23.000Z,28.6
2018-11-06T11:05:25.166Z,28.5
2018-11-06T11:06:27.303Z,28.5
2018-11-06T11:07:29.425Z,28.5
2018-11-06T11:08:31.560Z,28.5
2018-11-06T11:09:33.462Z,28.5
2018-11-06T11:10:35.326Z,28.6
2018-11-06T11:11:37.207Z,28.5
2018-11-06T11:12:39.771Z,28.7
2018-11-06T11:13:43.019Z,28.5
2018-11-06T11:14:45.177Z,28.6
2018-11-06T11:15:47.346Z,28.5
2018-11-06T11:16:49.785Z,28.5
2018-11-06T11:17:52.222Z,28.6
2018-11-06T11:18:54.659Z,28.6
2018-11-06T11:19:57.154Z,28.6
2018-11-06T11:20:59.099Z,28.5
2018-11-06T11:22:00.988Z,28.6
2018-11-06T11:23:03.170Z,28.4
2018-11-06T11:24:05.051Z,28.4
2018-11-06T11:25:07.476Z,28.6
2018-11-06T11:26:09.917Z,28.6
2018-11-06T11:27:12.350Z,28.6
2018-11-06T11:28:14.501Z,28.6
2018-11-06T11:29:16.936Z,28.5
2018-11-06T11:30:18.821Z,28.7
2018-11-06T11:31:20.687Z,28.7
2018-11-06T11:32:23.169Z,28.7
2018-11-06T11:33:25.333Z,28.6
2018-11-06T11:34:27.489Z,28.5
2018-11-06T11:35:29.650Z,28.4
2018-11-06T11:36:31.809Z,28.6
2018-11-06T11:37:34.269Z,28.6
2018-11-06T11:38:36.017Z,28.7
2018-11-06T11:39:38.170Z,28.4
2018-11-06T11:40:40.610Z,28.5
2018-11-06T11:41:42.773Z,28.4
2018-11-06T11:42:44.925Z,28.6
2018-11-06T11:43:46.850Z,28.6
2018-11-06T11:44:48.752Z,28.5
2018-11-06T11:45:50.467Z,28.6
2018-11-06T11:46:53.315Z,28.7
2018-11-06T11:47:55.183Z,28.4
2018-11-06T11:48:57.350Z,28.6
2018-11-06T11:49:59.789Z,28.6
2018-11-06T11:51:01.958Z,28.6
2018-11-06T11:52:04.109Z,28.6
2018-11-06T11:53:05.979Z,28.6
2018-11-06T11:54:08.139Z,28.7
2018-11-06T11:55:10.332Z,28.5
2018-11-06T11:56:12.543Z,28.6
2018-11-06T11:57:14.986Z,28.6
2018-11-06T11:58:17.415Z,28.5
2018-11-06T11:59:19.761Z,28.7
2018-11-06T12:00:21.625Z,28.7
2018-11-06T12:01:23.788Z,28.6
2018-11-06T12:02:25.954Z,28.6
2018-11-06T12:03:28.388Z,28.5
2018-11-06T12:04:30.548Z,28.5
2018-11-06T12:05:32.446Z,28.7
2018-11-06T12:06:34.882Z,28.6
2018-11-06T12:07:36.778Z,28.7
2018-11-06T12:08:39.208Z,28.6
2018-11-06T12:09:41.649Z,28.5
2018-11-06T12:10:43.795Z,28.7
2018-11-06T12:11:46.225Z,28.6
2018-11-06T12:12:48.085Z,28.6
2018-11-06T12:13:50.239Z,28.6
2018-11-06T12:14:52.665Z,28.4
2018-11-06T12:15:54.815Z,28.7
2018-11-06T12:16:56.709Z,28.5
2018-11-06T12:17:58.922Z,28.5
2018-11-06T12:19:01.464Z,28.6
2018-11-06T12:20:03.886Z,28.7
2018-11-06T12:21:06.048Z,28.6
2018-11-06T12:22:08.468Z,28.6
2018-11-06T12:23:10.608Z,28.5
2018-11-06T12:24:13.045Z,28.7
2018-11-06T12:25:15.953Z,28.7
2018-11-06T12:26:20.069Z,28.8
2018-11-06T12:27:21.937Z,28.4
2018-11-06T12:28:24.108Z,28.7
2018-11-06T12:29:26.531Z,28.7
2018-11-06T12:30:28.665Z,28.6
2018-11-06T12:31:30.851Z,28.5
2018-11-06T12:32:32.754Z,28.6
2018-11-06T12:33:35.390Z,28.7
2018-11-06T12:34:37.564Z,28.5
2018-11-06T12:35:39.700Z,28.6
2018-11-06T12:36:41.751Z,28.7
2018-11-06T12:37:43.964Z,28.7
2018-11-06T12:38:46.388Z,28.7
2018-11-06T12:39:48.276Z,28.6
2018-11-06T12:40:50.435Z,28.6
2018-11-06T12:41:52.300Z,28.6
2018-11-06T12:42:54.512Z,28.7
2018-11-06T12:43:56.599Z,28.6
2018-11-06T12:44:58.778Z,28.6
2018-11-06T12:46:00.630Z,28.6
2018-11-06T12:47:02.786Z,28.6
2018-11-06T12:48:04.940Z,28.7
2018-11-06T12:49:06.802Z,28.5
2018-11-06T12:50:08.987Z,28.7
2018-11-06T12:51:11.659Z,28.7
2018-11-06T12:52:13.539Z,28.6
2018-11-06T12:53:15.672Z,28.6
2018-11-06T12:54:17.833Z,28.7
2018-11-06T12:55:19.438Z,28.6
2018-11-06T12:56:21.652Z,28.7
2018-11-06T12:57:23.634Z,28.8
2018-11-06T12:58:25.814Z,28.5
2018-11-06T12:59:27.674Z,28.5
2018-11-06T13:00:30.107Z,28.7
2018-11-06T13:01:32.540Z,28.8
2018-11-06T13:02:34.417Z,28.7
2018-11-06T13:03:36.012Z,28.7
2018-11-06T13:04:38.435Z,28.7
2018-11-06T13:05:40.310Z,28.7
2018-11-06T13:06:42.749Z,28.5
2018-11-06T13:07:45.192Z,28.5
2018-11-06T13:08:47.619Z,28.7
2018-11-06T13:09:49.845Z,28.6
2018-11-06T13:10:52.248Z,28.5
2018-11-06T13:11:54.411Z,28.6
2018-11-06T13:12:56.582Z,28.7
2018-11-06T13:13:58.201Z,28.6
2018-11-06T13:15:00.623Z,28.7
2018-11-06T13:16:02.930Z,28.6
2018-11-06T13:17:05.294Z,28.5
2018-11-06T13:18:08.073Z,28.6
2018-11-06T13:19:10.211Z,28.7
2018-11-06T13:20:12.382Z,28.7
2018-11-06T13:21:14.260Z,28.6
2018-11-06T13:22:16.691Z,28.6
2018-11-06T13:23:18.848Z,28.6
2018-11-06T13:24:21.009Z,28.7
2018-11-06T13:25:23.209Z,28.6
2018-11-06T13:26:25.716Z,28.7
2018-11-06T13:27:28.842Z,28.6
2018-11-06T13:28:31.268Z,28.7
2018-11-06T13:29:33.706Z,28.7
2018-11-06T13:30:35.947Z,28.7
2018-11-06T13:31:38.048Z,28.7
2018-11-06T13:32:40.205Z,28.6
2018-11-06T13:33:42.632Z,28.6
2018-11-06T13:34:44.498Z,28.6
2018-11-06T13:35:46.924Z,28.6
2018-11-06T13:36:48.784Z,28.7
2018-11-06T13:37:51.205Z,28.7
2018-11-06T13:38:53.656Z,28.7
2018-11-06T13:39:55.812Z,28.6
2018-11-06T13:40:57.986Z,28.7
2018-11-06T13:42:00.264Z,28.7
2018-11-06T13:43:01.641Z,28.6
2018-11-06T13:44:04.011Z,28.8
2018-11-06T13:45:06.789Z,28.7
2018-11-06T13:46:09.002Z,28.6
2018-11-06T13:47:11.168Z,28.7
2018-11-06T13:48:13.067Z,28.7
2018-11-06T13:49:15.494Z,28.7
2018-11-06T13:50:17.931Z,28.7